sensor_id;sensor_type;location;lat;lon;timestamp;pressure;altitude;pressure_sealevel;temperature;humidity
53011;BME280;42803;55.762;38.084;2023-05-08T00:01:26;100984.91;;;-0.27;85.24
53011;BME280;42803;55.762;38.084;2023-05-08T00:03:57;100992.47;;;-0.15;84.73
53011;BME280;42803;55.762;38.084;2023-05-08T00:06:27;100990.13;;;-0.14;84.50
53011;BME280;42803;55.762;38.084;2023-05-08T00:08:56;100989.41;;;-0.13;84.18
53011;BME280;42803;55.762;38.084;2023-05-08T00:11:25;100988.94;;;-0.10;84.26
53011;BME280;42803;55.762;38.084;2023-05-08T00:13:55;100992.16;;;-0.06;84.35
53011;BME280;42803;55.762;38.084;2023-05-08T00:16:24;100994.72;;;-0.06;83.72
53011;BME280;42803;55.762;38.084;2023-05-08T00:18:53;100996.81;;;-0.03;83.97
53011;BME280;42803;55.762;38.084;2023-05-08T00:21:22;100999.81;;;0.00;83.48
53011;BME280;42803;55.762;38.084;2023-05-08T00:23:52;100996.97;;;0.04;83.42
53011;BME280;42803;55.762;38.084;2023-05-08T00:26:21;101002.38;;;0.00;83.27
53011;BME280;42803;55.762;38.084;2023-05-08T00:28:50;101010.31;;;-0.04;83.20
53011;BME280;42803;55.762;38.084;2023-05-08T00:31:19;101003.78;;;-0.02;83.29
53011;BME280;42803;55.762;38.084;2023-05-08T00:33:48;101004.50;;;-0.03;82.91
53011;BME280;42803;55.762;38.084;2023-05-08T00:36:17;101009.91;;;-0.07;83.71
53011;BME280;42803;55.762;38.084;2023-05-08T00:38:47;101012.03;;;-0.10;83.41
53011;BME280;42803;55.762;38.084;2023-05-08T00:41:17;101011.59;;;-0.13;83.76
53011;BME280;42803;55.762;38.084;2023-05-08T00:43:47;101011.13;;;-0.11;83.51
53011;BME280;42803;55.762;38.084;2023-05-08T00:46:16;101010.28;;;-0.22;83.84
53011;BME280;42803;55.762;38.084;2023-05-08T00:48:46;101014.81;;;-0.33;84.29
53011;BME280;42803;55.762;38.084;2023-05-08T00:51:15;101018.56;;;-0.36;84.59
53011;BME280;42803;55.762;38.084;2023-05-08T00:53:44;101018.41;;;-0.43;84.85
53011;BME280;42803;55.762;38.084;2023-05-08T00:56:14;101022.41;;;-0.51;84.96
53011;BME280;42803;55.762;38.084;2023-05-08T00:58:46;101020.84;;;-0.56;85.52
53011;BME280;42803;55.762;38.084;2023-05-08T01:01:15;101026.25;;;-0.60;85.77
53011;BME280;42803;55.762;38.084;2023-05-08T01:03:45;101021.78;;;-0.61;85.92
53011;BME280;42803;55.762;38.084;2023-05-08T01:06:15;101022.97;;;-0.59;86.24
53011;BME280;42803;55.762;38.084;2023-05-08T01:08:44;101021.78;;;-0.56;86.15
53011;BME280;42803;55.762;38.084;2023-05-08T01:11:17;101015.25;;;-0.59;86.42
53011;BME280;42803;55.762;38.084;2023-05-08T01:13:56;101027.63;;;-0.57;86.37
53011;BME280;42803;55.762;38.084;2023-05-08T01:16:36;101022.25;;;-0.58;86.20
53011;BME280;42803;55.762;38.084;2023-05-08T01:19:26;101024.28;;;-0.50;86.23
53011;BME280;42803;55.762;38.084;2023-05-08T01:22:06;101024.50;;;-0.48;85.65
53011;BME280;42803;55.762;38.084;2023-05-08T01:24:59;101024.50;;;-0.48;85.73
53011;BME280;42803;55.762;38.084;2023-05-08T01:31:02;101039.06;;;-0.60;86.81
53011;BME280;42803;55.762;38.084;2023-05-08T01:33:39;101041.84;;;-0.59;86.62
53011;BME280;42803;55.762;38.084;2023-05-08T01:36:20;101038.16;;;-0.37;86.56
53011;BME280;42803;55.762;38.084;2023-05-08T01:38:57;101039.16;;;0.06;85.41
53011;BME280;42803;55.762;38.084;2023-05-08T01:41:30;101034.94;;;0.49;83.57
53011;BME280;42803;55.762;38.084;2023-05-08T01:44:08;101040.53;;;0.89;82.33
53011;BME280;42803;55.762;38.084;2023-05-08T01:46:38;101039.75;;;1.27;79.82
53011;BME280;42803;55.762;38.084;2023-05-08T01:49:11;101036.34;;;1.64;78.43
53011;BME280;42803;55.762;38.084;2023-05-08T01:51:43;101032.16;;;2.03;76.42
53011;BME280;42803;55.762;38.084;2023-05-08T01:54:15;101040.06;;;2.43;75.17
53011;BME280;42803;55.762;38.084;2023-05-08T01:56:46;101032.56;;;2.77;73.57
53011;BME280;42803;55.762;38.084;2023-05-08T01:59:20;101035.22;;;3.17;72.30
53011;BME280;42803;55.762;38.084;2023-05-08T02:01:51;101025.59;;;3.56;70.97
53011;BME280;42803;55.762;38.084;2023-05-08T02:04:25;101030.84;;;3.90;69.79
53011;BME280;42803;55.762;38.084;2023-05-08T02:06:56;101034.72;;;4.21;68.44
53011;BME280;42803;55.762;38.084;2023-05-08T02:09:27;101033.50;;;4.31;67.49
53011;BME280;42803;55.762;38.084;2023-05-08T02:11:58;101034.56;;;4.26;67.54
53011;BME280;42803;55.762;38.084;2023-05-08T02:14:30;101038.78;;;4.60;67.19
53011;BME280;42803;55.762;38.084;2023-05-08T02:17:01;101036.13;;;4.87;66.09
53011;BME280;42803;55.762;38.084;2023-05-08T02:19:33;101036.22;;;5.23;64.95
53011;BME280;42803;55.762;38.084;2023-05-08T02:22:04;101041.63;;;5.46;63.83
53011;BME280;42803;55.762;38.084;2023-05-08T02:24:35;101038.09;;;5.74;63.17
53011;BME280;42803;55.762;38.084;2023-05-08T02:27:07;101048.06;;;6.14;61.91
53011;BME280;42803;55.762;38.084;2023-05-08T02:29:37;101046.84;;;6.54;60.62
53011;BME280;42803;55.762;38.084;2023-05-08T02:32:07;101042.78;;;6.94;59.79
53011;BME280;42803;55.762;38.084;2023-05-08T02:34:39;101045.66;;;7.41;58.99
53011;BME280;42803;55.762;38.084;2023-05-08T02:37:26;101047.34;;;8.25;56.26
53011;BME280;42803;55.762;38.084;2023-05-08T02:39:57;101044.19;;;8.75;54.56
53011;BME280;42803;55.762;38.084;2023-05-08T02:42:28;101049.94;;;9.05;54.06
53011;BME280;42803;55.762;38.084;2023-05-08T02:44:58;101057.66;;;9.61;53.07
53011;BME280;42803;55.762;38.084;2023-05-08T02:47:36;101057.34;;;10.24;50.63
53011;BME280;42803;55.762;38.084;2023-05-08T02:50:14;101055.28;;;10.46;49.76
53011;BME280;42803;55.762;38.084;2023-05-08T02:52:47;101069.31;;;8.75;50.09
53011;BME280;42803;55.762;38.084;2023-05-08T02:55:28;101071.03;;;6.83;53.91
53011;BME280;42803;55.762;38.084;2023-05-08T02:58:07;101083.59;;;5.65;58.15
53011;BME280;42803;55.762;38.084;2023-05-08T03:00:45;101077.38;;;5.07;60.17
53011;BME280;42803;55.762;38.084;2023-05-08T03:03:19;101084.09;;;4.71;63.06
53011;BME280;42803;55.762;38.084;2023-05-08T03:05:52;101081.53;;;4.36;65.24
53011;BME280;42803;55.762;38.084;2023-05-08T03:08:25;101083.84;;;4.21;65.38
53011;BME280;42803;55.762;38.084;2023-05-08T03:10:58;101088.31;;;4.29;65.11
53011;BME280;42803;55.762;38.084;2023-05-08T03:13:31;101084.19;;;4.17;65.30
53011;BME280;42803;55.762;38.084;2023-05-08T03:16:05;101085.09;;;4.17;65.38
53011;BME280;42803;55.762;38.084;2023-05-08T03:18:43;101097.97;;;4.10;65.81
53011;BME280;42803;55.762;38.084;2023-05-08T03:21:17;101102.41;;;4.11;65.91
53011;BME280;42803;55.762;38.084;2023-05-08T03:23:48;101097.03;;;4.09;66.21
53011;BME280;42803;55.762;38.084;2023-05-08T03:26:19;101098.44;;;4.27;65.86
53011;BME280;42803;55.762;38.084;2023-05-08T03:28:49;101102.91;;;4.62;65.75
53011;BME280;42803;55.762;38.084;2023-05-08T03:31:23;101107.47;;;4.92;64.80
53011;BME280;42803;55.762;38.084;2023-05-08T03:33:54;101108.25;;;4.98;64.41
53011;BME280;42803;55.762;38.084;2023-05-08T03:36:25;101106.78;;;5.07;63.97
53011;BME280;42803;55.762;38.084;2023-05-08T03:38:55;101104.97;;;5.13;64.45
53011;BME280;42803;55.762;38.084;2023-05-08T03:41:24;101111.97;;;5.14;64.15
53011;BME280;42803;55.762;38.084;2023-05-08T03:43:55;101109.81;;;5.32;64.24
53011;BME280;42803;55.762;38.084;2023-05-08T03:46:24;101100.41;;;5.32;63.84
53011;BME280;42803;55.762;38.084;2023-05-08T03:48:56;101109.13;;;5.47;63.50
53011;BME280;42803;55.762;38.084;2023-05-08T03:51:28;101104.31;;;5.43;63.36
53011;BME280;42803;55.762;38.084;2023-05-08T03:53:59;101098.19;;;5.57;63.06
53011;BME280;42803;55.762;38.084;2023-05-08T03:56:28;101113.75;;;5.64;63.32
53011;BME280;42803;55.762;38.084;2023-05-08T03:59:06;101111.75;;;5.69;62.90
53011;BME280;42803;55.762;38.084;2023-05-08T04:01:38;101116.53;;;5.80;62.48
53011;BME280;42803;55.762;38.084;2023-05-08T04:04:15;101112.09;;;5.72;62.30
53011;BME280;42803;55.762;38.084;2023-05-08T04:06:50;101109.28;;;5.42;62.53
53011;BME280;42803;55.762;38.084;2023-05-08T04:09:36;101113.16;;;5.24;63.06
53011;BME280;42803;55.762;38.084;2023-05-08T04:12:08;101114.06;;;5.24;63.31
53011;BME280;42803;55.762;38.084;2023-05-08T04:14:44;101112.75;;;5.21;63.50
53011;BME280;42803;55.762;38.084;2023-05-08T04:17:22;101113.53;;;5.27;63.28
53011;BME280;42803;55.762;38.084;2023-05-08T04:20:00;101120.94;;;5.31;63.19
53011;BME280;42803;55.762;38.084;2023-05-08T04:22:34;101123.88;;;5.27;63.09
53011;BME280;42803;55.762;38.084;2023-05-08T04:25:07;101119.81;;;5.29;62.96
53011;BME280;42803;55.762;38.084;2023-05-08T04:27:38;101123.53;;;5.38;62.88
53011;BME280;42803;55.762;38.084;2023-05-08T04:30:09;101114.69;;;5.50;62.60
53011;BME280;42803;55.762;38.084;2023-05-08T04:32:39;101113.75;;;5.57;62.29
53011;BME280;42803;55.762;38.084;2023-05-08T04:35:12;101115.06;;;5.68;62.54
53011;BME280;42803;55.762;38.084;2023-05-08T04:37:44;101118.22;;;5.79;62.17
53011;BME280;42803;55.762;38.084;2023-05-08T04:40:14;101120.63;;;5.85;61.99
53011;BME280;42803;55.762;38.084;2023-05-08T04:42:44;101112.66;;;5.91;61.67
53011;BME280;42803;55.762;38.084;2023-05-08T04:45:17;101106.44;;;6.03;61.38
53011;BME280;42803;55.762;38.084;2023-05-08T04:47:46;101111.59;;;6.17;61.32
53011;BME280;42803;55.762;38.084;2023-05-08T04:50:15;101110.81;;;6.32;61.03
53011;BME280;42803;55.762;38.084;2023-05-08T04:52:46;101114.34;;;6.33;60.54
53011;BME280;42803;55.762;38.084;2023-05-08T04:55:15;101121.38;;;6.41;60.26
53011;BME280;42803;55.762;38.084;2023-05-08T04:57:46;101102.13;;;6.32;59.77
53011;BME280;42803;55.762;38.084;2023-05-08T05:00:16;101121.34;;;6.48;59.81
53011;BME280;42803;55.762;38.084;2023-05-08T05:02:46;101116.16;;;6.55;59.36
53011;BME280;42803;55.762;38.084;2023-05-08T05:05:15;101116.88;;;6.69;59.28
53011;BME280;42803;55.762;38.084;2023-05-08T05:07:46;101127.56;;;6.79;58.79
53011;BME280;42803;55.762;38.084;2023-05-08T05:10:16;101121.66;;;6.73;59.03
53011;BME280;42803;55.762;38.084;2023-05-08T05:12:46;101134.44;;;6.78;58.33
53011;BME280;42803;55.762;38.084;2023-05-08T05:15:15;101137.78;;;6.70;58.80
53011;BME280;42803;55.762;38.084;2023-05-08T05:17:44;101129.22;;;6.86;58.58
53011;BME280;42803;55.762;38.084;2023-05-08T05:20:13;101130.44;;;7.11;57.81
53011;BME280;42803;55.762;38.084;2023-05-08T05:22:43;101137.84;;;7.15;57.33
53011;BME280;42803;55.762;38.084;2023-05-08T05:25:14;101131.81;;;7.30;57.51
53011;BME280;42803;55.762;38.084;2023-05-08T05:27:44;101128.28;;;7.37;56.95
53011;BME280;42803;55.762;38.084;2023-05-08T05:30:13;101144.09;;;7.24;55.87
53011;BME280;42803;55.762;38.084;2023-05-08T05:32:43;101135.59;;;7.18;56.50
53011;BME280;42803;55.762;38.084;2023-05-08T05:35:12;101138.84;;;7.31;55.89
53011;BME280;42803;55.762;38.084;2023-05-08T05:37:41;101134.72;;;7.40;54.92
53011;BME280;42803;55.762;38.084;2023-05-08T05:40:11;101130.94;;;7.52;54.88
53011;BME280;42803;55.762;38.084;2023-05-08T05:42:47;101137.44;;;7.56;54.00
53011;BME280;42803;55.762;38.084;2023-05-08T05:45:17;101142.50;;;7.40;53.90
53011;BME280;42803;55.762;38.084;2023-05-08T05:47:47;101140.59;;;7.53;53.91
53011;BME280;42803;55.762;38.084;2023-05-08T05:50:21;101142.94;;;7.59;52.96
53011;BME280;42803;55.762;38.084;2023-05-08T05:52:50;101130.69;;;7.65;52.45
53011;BME280;42803;55.762;38.084;2023-05-08T05:55:20;101135.53;;;7.85;52.23
53011;BME280;42803;55.762;38.084;2023-05-08T05:57:51;101134.41;;;7.90;51.38
53011;BME280;42803;55.762;38.084;2023-05-08T06:00:20;101135.31;;;7.68;51.61
53011;BME280;42803;55.762;38.084;2023-05-08T06:02:54;101131.16;;;7.77;51.64
53011;BME280;42803;55.762;38.084;2023-05-08T06:05:24;101139.25;;;7.87;51.12
53011;BME280;42803;55.762;38.084;2023-05-08T06:07:53;101126.16;;;8.01;50.87
53011;BME280;42803;55.762;38.084;2023-05-08T06:10:23;101134.84;;;8.25;50.38
53011;BME280;42803;55.762;38.084;2023-05-08T06:12:54;101135.53;;;8.31;49.79
53011;BME280;42803;55.762;38.084;2023-05-08T06:15:24;101139.47;;;8.50;49.59
53011;BME280;42803;55.762;38.084;2023-05-08T06:17:54;101138.13;;;8.70;49.66
53011;BME280;42803;55.762;38.084;2023-05-08T06:20:23;101135.72;;;8.87;49.75
53011;BME280;42803;55.762;38.084;2023-05-08T06:22:53;101137.75;;;9.06;48.95
53011;BME280;42803;55.762;38.084;2023-05-08T06:25:22;101127.56;;;9.16;47.88
53011;BME280;42803;55.762;38.084;2023-05-08T06:27:51;101138.31;;;9.19;47.86
53011;BME280;42803;55.762;38.084;2023-05-08T06:30:22;101145.88;;;8.93;47.07
53011;BME280;42803;55.762;38.084;2023-05-08T06:32:51;101155.41;;;9.08;47.23
53011;BME280;42803;55.762;38.084;2023-05-08T06:35:20;101141.75;;;9.11;47.24
53011;BME280;42803;55.762;38.084;2023-05-08T06:37:49;101135.28;;;9.23;46.83
53011;BME280;42803;55.762;38.084;2023-05-08T06:40:18;101134.91;;;9.51;46.41
53011;BME280;42803;55.762;38.084;2023-05-08T06:42:47;101132.28;;;9.76;45.42
53011;BME280;42803;55.762;38.084;2023-05-08T06:45:17;101141.63;;;9.98;45.62
53011;BME280;42803;55.762;38.084;2023-05-08T06:47:47;101135.41;;;9.81;45.37
53011;BME280;42803;55.762;38.084;2023-05-08T06:50:16;101135.22;;;9.79;45.62
53011;BME280;42803;55.762;38.084;2023-05-08T06:52:45;101132.19;;;10.08;45.48
53011;BME280;42803;55.762;38.084;2023-05-08T06:55:14;101127.25;;;10.11;45.44
53011;BME280;42803;55.762;38.084;2023-05-08T06:57:43;101133.56;;;10.13;45.34
53011;BME280;42803;55.762;38.084;2023-05-08T07:00:13;101116.03;;;10.28;45.50
53011;BME280;42803;55.762;38.084;2023-05-08T07:02:42;101119.84;;;10.82;44.54
53011;BME280;42803;55.762;38.084;2023-05-08T07:05:13;101110.34;;;11.34;44.13
53011;BME280;42803;55.762;38.084;2023-05-08T07:07:43;101108.97;;;11.38;42.88
53011;BME280;42803;55.762;38.084;2023-05-08T07:10:12;101111.56;;;11.46;42.94
53011;BME280;42803;55.762;38.084;2023-05-08T07:12:41;101126.94;;;11.09;43.89
53011;BME280;42803;55.762;38.084;2023-05-08T07:15:11;101112.66;;;10.37;44.05
53011;BME280;42803;55.762;38.084;2023-05-08T07:17:52;101125.78;;;9.64;44.60
53011;BME280;42803;55.762;38.084;2023-05-08T07:20:43;101122.53;;;9.42;45.52
53011;BME280;42803;55.762;38.084;2023-05-08T07:23:12;101130.66;;;9.61;45.35
53011;BME280;42803;55.762;38.084;2023-05-08T07:25:41;101117.44;;;10.08;45.05
53011;BME280;42803;55.762;38.084;2023-05-08T07:28:10;101113.84;;;10.65;43.89
53011;BME280;42803;55.762;38.084;2023-05-08T07:30:39;101103.56;;;11.54;42.58
53011;BME280;42803;55.762;38.084;2023-05-08T07:33:08;101106.25;;;11.90;40.56
53011;BME280;42803;55.762;38.084;2023-05-08T07:35:38;101102.09;;;12.28;39.99
53011;BME280;42803;55.762;38.084;2023-05-08T07:38:27;101101.72;;;12.42;39.92
53011;BME280;42803;55.762;38.084;2023-05-08T07:40:56;101092.69;;;12.85;39.58
53011;BME280;42803;55.762;38.084;2023-05-08T07:43:46;101090.28;;;12.78;38.51
53011;BME280;42803;55.762;38.084;2023-05-08T07:46:16;101102.44;;;11.69;39.10
53011;BME280;42803;55.762;38.084;2023-05-08T07:51:33;101108.47;;;10.81;41.22
53011;BME280;42803;55.762;38.084;2023-05-08T07:54:04;101105.09;;;10.82;41.03
53011;BME280;42803;55.762;38.084;2023-05-08T07:56:33;101110.59;;;10.68;41.00
53011;BME280;42803;55.762;38.084;2023-05-08T07:59:02;101116.38;;;10.48;41.54
53011;BME280;42803;55.762;38.084;2023-05-08T08:01:31;101101.81;;;10.59;41.26
53011;BME280;42803;55.762;38.084;2023-05-08T08:04:00;101105.75;;;11.23;40.92
53011;BME280;42803;55.762;38.084;2023-05-08T08:06:30;101099.72;;;11.50;39.86
53011;BME280;42803;55.762;38.084;2023-05-08T08:08:59;101099.84;;;11.52;40.01
53011;BME280;42803;55.762;38.084;2023-05-08T08:11:30;101092.56;;;11.92;39.35
53011;BME280;42803;55.762;38.084;2023-05-08T08:13:59;101101.41;;;12.12;39.32
53011;BME280;42803;55.762;38.084;2023-05-08T08:16:28;101094.03;;;12.44;38.65
53011;BME280;42803;55.762;38.084;2023-05-08T08:18:59;101086.69;;;12.31;38.74
53011;BME280;42803;55.762;38.084;2023-05-08T08:21:28;101097.69;;;11.47;40.10
53011;BME280;42803;55.762;38.084;2023-05-08T08:23:58;101088.53;;;11.08;40.57
53011;BME280;42803;55.762;38.084;2023-05-08T08:26:27;101103.22;;;10.64;41.40
53011;BME280;42803;55.762;38.084;2023-05-08T08:29:16;101114.22;;;10.44;41.66
53011;BME280;42803;55.762;38.084;2023-05-08T08:31:45;101096.00;;;10.19;41.93
53011;BME280;42803;55.762;38.084;2023-05-08T08:34:14;101100.69;;;10.31;42.08
53011;BME280;42803;55.762;38.084;2023-05-08T08:36:44;101092.75;;;10.46;41.83
53011;BME280;42803;55.762;38.084;2023-05-08T08:39:13;101102.47;;;10.65;41.43
53011;BME280;42803;55.762;38.084;2023-05-08T08:41:42;101098.66;;;10.96;41.33
53011;BME280;42803;55.762;38.084;2023-05-08T08:44:11;101092.19;;;11.27;40.41
53011;BME280;42803;55.762;38.084;2023-05-08T08:47:19;101095.84;;;11.64;40.11
53011;BME280;42803;55.762;38.084;2023-05-08T08:49:51;101089.91;;;12.10;39.49
53011;BME280;42803;55.762;38.084;2023-05-08T08:52:40;101082.50;;;12.42;38.68
53011;BME280;42803;55.762;38.084;2023-05-08T08:55:14;101079.31;;;12.82;38.44
53011;BME280;42803;55.762;38.084;2023-05-08T08:57:51;101080.28;;;13.12;38.32
53011;BME280;42803;55.762;38.084;2023-05-08T09:00:24;101087.31;;;13.03;37.89
53011;BME280;42803;55.762;38.084;2023-05-08T09:02:57;101086.94;;;13.08;38.53
53011;BME280;42803;55.762;38.084;2023-05-08T09:08:17;101089.03;;;12.56;38.32
53011;BME280;42803;55.762;38.084;2023-05-08T09:11:03;101091.81;;;12.30;37.72
53011;BME280;42803;55.762;38.084;2023-05-08T09:13:33;101090.69;;;12.36;38.39
53011;BME280;42803;55.762;38.084;2023-05-08T09:16:02;101091.44;;;12.35;38.59
53011;BME280;42803;55.762;38.084;2023-05-08T09:18:33;101103.47;;;12.06;38.86
53011;BME280;42803;55.762;38.084;2023-05-08T09:21:05;101098.28;;;11.88;39.19
53011;BME280;42803;55.762;38.084;2023-05-08T09:23:35;101089.03;;;11.92;39.18
53011;BME280;42803;55.762;38.084;2023-05-08T09:26:04;101101.25;;;12.19;39.09
53011;BME280;42803;55.762;38.084;2023-05-08T09:28:33;101093.88;;;12.42;38.20
53011;BME280;42803;55.762;38.084;2023-05-08T09:31:02;101095.34;;;13.23;37.01
53011;BME280;42803;55.762;38.084;2023-05-08T09:33:32;101075.31;;;13.53;36.34
53011;BME280;42803;55.762;38.084;2023-05-08T09:36:24;101081.94;;;13.39;36.23
53011;BME280;42803;55.762;38.084;2023-05-08T09:38:54;101067.50;;;14.02;35.72
53011;BME280;42803;55.762;38.084;2023-05-08T09:41:23;101066.44;;;14.50;35.17
53011;BME280;42803;55.762;38.084;2023-05-08T09:44:00;101068.56;;;14.14;35.84
53011;BME280;42803;55.762;38.084;2023-05-08T09:46:30;101081.59;;;13.26;36.09
53011;BME280;42803;55.762;38.084;2023-05-08T09:49:02;101064.19;;;12.61;36.73
53011;BME280;42803;55.762;38.084;2023-05-08T09:51:31;101072.06;;;12.61;37.74
53011;BME280;42803;55.762;38.084;2023-05-08T09:54:00;101066.44;;;12.66;37.46
53011;BME280;42803;55.762;38.084;2023-05-08T09:56:34;101066.91;;;12.43;38.09
53011;BME280;42803;55.762;38.084;2023-05-08T09:59:04;101064.78;;;12.67;38.54
53011;BME280;42803;55.762;38.084;2023-05-08T10:01:35;101067.25;;;12.84;38.39
53011;BME280;42803;55.762;38.084;2023-05-08T10:04:07;101064.28;;;12.71;37.18
53011;BME280;42803;55.762;38.084;2023-05-08T10:06:37;101058.91;;;12.88;36.73
53011;BME280;42803;55.762;38.084;2023-05-08T10:09:10;101060.38;;;13.14;37.15
53011;BME280;42803;55.762;38.084;2023-05-08T10:11:40;101058.97;;;12.80;37.81
53011;BME280;42803;55.762;38.084;2023-05-08T10:14:09;101063.59;;;12.55;38.22
53011;BME280;42803;55.762;38.084;2023-05-08T10:16:41;101062.31;;;12.41;38.14
53011;BME280;42803;55.762;38.084;2023-05-08T10:19:14;101064.44;;;12.45;38.25
53011;BME280;42803;55.762;38.084;2023-05-08T10:21:46;101077.28;;;12.06;37.29
53011;BME280;42803;55.762;38.084;2023-05-08T10:24:17;101056.09;;;11.85;37.24
53011;BME280;42803;55.762;38.084;2023-05-08T10:26:51;101057.19;;;11.87;37.35
53011;BME280;42803;55.762;38.084;2023-05-08T10:29:40;101068.59;;;12.15;36.96
53011;BME280;42803;55.762;38.084;2023-05-08T10:32:11;101045.50;;;12.66;36.42
53011;BME280;42803;55.762;38.084;2023-05-08T10:34:42;101041.47;;;12.89;36.17
53011;BME280;42803;55.762;38.084;2023-05-08T10:37:14;101042.69;;;13.30;35.66
53011;BME280;42803;55.762;38.084;2023-05-08T10:39:44;101042.38;;;13.08;36.28
53011;BME280;42803;55.762;38.084;2023-05-08T10:42:14;101050.91;;;12.87;36.45
53011;BME280;42803;55.762;38.084;2023-05-08T10:44:44;101048.34;;;12.59;37.19
53011;BME280;42803;55.762;38.084;2023-05-08T10:47:20;101039.34;;;12.66;37.11
53011;BME280;42803;55.762;38.084;2023-05-08T10:49:58;101047.19;;;12.66;37.14
53011;BME280;42803;55.762;38.084;2023-05-08T10:52:34;101037.44;;;12.74;37.21
53011;BME280;42803;55.762;38.084;2023-05-08T10:55:15;101052.31;;;12.64;36.88
53011;BME280;42803;55.762;38.084;2023-05-08T10:58:09;101038.13;;;12.81;36.76
53011;BME280;42803;55.762;38.084;2023-05-08T11:01:15;101048.19;;;13.14;36.80
53011;BME280;42803;55.762;38.084;2023-05-08T11:03:46;101045.50;;;13.04;36.34
53011;BME280;42803;55.762;38.084;2023-05-08T11:06:42;101043.34;;;13.09;36.71
53011;BME280;42803;55.762;38.084;2023-05-08T11:09:19;101035.69;;;13.02;36.49
53011;BME280;42803;55.762;38.084;2023-05-08T11:12:05;101036.69;;;13.23;36.34
53011;BME280;42803;55.762;38.084;2023-05-08T11:14:38;101034.16;;;13.62;35.78
53011;BME280;42803;55.762;38.084;2023-05-08T11:17:10;101029.25;;;13.75;35.91
53011;BME280;42803;55.762;38.084;2023-05-08T11:19:54;101030.31;;;13.87;34.94
53011;BME280;42803;55.762;38.084;2023-05-08T11:22:27;101021.84;;;14.41;35.18
53011;BME280;42803;55.762;38.084;2023-05-08T11:24:59;101034.09;;;14.61;35.07
53011;BME280;42803;55.762;38.084;2023-05-08T11:27:39;101030.19;;;13.86;34.47
53011;BME280;42803;55.762;38.084;2023-05-08T11:30:23;101022.41;;;13.38;34.00
53011;BME280;42803;55.762;38.084;2023-05-08T11:33:16;101029.84;;;13.33;34.45
53011;BME280;42803;55.762;38.084;2023-05-08T11:35:47;101024.31;;;12.92;35.93
53011;BME280;42803;55.762;38.084;2023-05-08T11:38:20;101024.50;;;12.75;36.07
53011;BME280;42803;55.762;38.084;2023-05-08T11:40:58;101025.41;;;12.57;36.18
53011;BME280;42803;55.762;38.084;2023-05-08T11:49:18;101030.38;;;12.26;36.74
53011;BME280;42803;55.762;38.084;2023-05-08T11:51:57;101022.19;;;12.51;36.49
53011;BME280;42803;55.762;38.084;2023-05-08T11:54:30;101030.22;;;12.52;36.20
53011;BME280;42803;55.762;38.084;2023-05-08T11:56:59;101023.56;;;12.28;35.88
53011;BME280;42803;55.762;38.084;2023-05-08T11:59:34;101018.72;;;12.41;35.97
53011;BME280;42803;55.762;38.084;2023-05-08T12:02:03;101026.72;;;12.62;35.85
53011;BME280;42803;55.762;38.084;2023-05-08T12:04:43;101020.50;;;12.70;35.64
53011;BME280;42803;55.762;38.084;2023-05-08T12:07:13;101029.44;;;13.10;34.81
53011;BME280;42803;55.762;38.084;2023-05-08T12:09:45;101021.72;;;12.92;35.46
53011;BME280;42803;55.762;38.084;2023-05-08T12:12:14;101028.06;;;13.05;35.37
53011;BME280;42803;55.762;38.084;2023-05-08T12:14:43;101025.19;;;13.21;35.30
53011;BME280;42803;55.762;38.084;2023-05-08T12:17:15;101025.19;;;12.83;35.03
53011;BME280;42803;55.762;38.084;2023-05-08T12:19:45;101024.03;;;12.33;35.09
53011;BME280;42803;55.762;38.084;2023-05-08T12:22:14;101014.06;;;12.20;35.84
53011;BME280;42803;55.762;38.084;2023-05-08T12:24:45;101003.81;;;12.32;35.73
53011;BME280;42803;55.762;38.084;2023-05-08T12:27:14;101010.56;;;12.38;35.79
53011;BME280;42803;55.762;38.084;2023-05-08T12:29:44;101012.34;;;12.29;36.39
53011;BME280;42803;55.762;38.084;2023-05-08T12:32:13;101020.56;;;12.61;36.10
53011;BME280;42803;55.762;38.084;2023-05-08T12:34:42;101015.84;;;12.76;35.50
53011;BME280;42803;55.762;38.084;2023-05-08T12:37:22;101007.28;;;12.68;35.57
53011;BME280;42803;55.762;38.084;2023-05-08T12:39:53;101012.59;;;12.98;35.60
53011;BME280;42803;55.762;38.084;2023-05-08T12:42:40;101005.84;;;12.91;34.92
53011;BME280;42803;55.762;38.084;2023-05-08T12:45:16;101005.22;;;12.93;35.16
53011;BME280;42803;55.762;38.084;2023-05-08T12:47:46;100999.47;;;13.46;34.92
53011;BME280;42803;55.762;38.084;2023-05-08T12:50:17;100999.00;;;13.60;34.32
53011;BME280;42803;55.762;38.084;2023-05-08T12:52:48;101006.88;;;13.60;34.83
53011;BME280;42803;55.762;38.084;2023-05-08T12:55:22;100999.41;;;13.25;33.87
53011;BME280;42803;55.762;38.084;2023-05-08T12:57:58;100995.00;;;12.97;33.17
53011;BME280;42803;55.762;38.084;2023-05-08T13:00:38;100999.53;;;13.08;33.43
53011;BME280;42803;55.762;38.084;2023-05-08T13:03:10;100996.34;;;13.50;32.62
53011;BME280;42803;55.762;38.084;2023-05-08T13:05:41;100989.47;;;13.81;31.56
53011;BME280;42803;55.762;38.084;2023-05-08T13:08:10;100991.19;;;13.70;31.88
53011;BME280;42803;55.762;38.084;2023-05-08T13:10:44;100992.75;;;13.39;31.57
53011;BME280;42803;55.762;38.084;2023-05-08T13:13:14;100984.25;;;12.93;33.26
53011;BME280;42803;55.762;38.084;2023-05-08T13:15:44;100989.13;;;12.61;33.89
53011;BME280;42803;55.762;38.084;2023-05-08T13:18:14;100988.22;;;12.61;34.61
53011;BME280;42803;55.762;38.084;2023-05-08T13:20:43;100988.19;;;12.23;34.87
53011;BME280;42803;55.762;38.084;2023-05-08T13:23:12;100979.72;;;11.98;35.43
53011;BME280;42803;55.762;38.084;2023-05-08T13:25:42;100984.72;;;12.14;35.68